createdAt,value
2023-05-17T00:00:06.985Z,2.00
2023-05-17T00:03:08.740Z,1.90
2023-05-17T00:06:10.650Z,1.70
2023-05-17T00:09:12.408Z,1.77
2023-05-17T00:12:14.129Z,2.13
2023-05-17T00:15:15.888Z,2.70
2023-05-17T00:18:17.778Z,1.97
2023-05-17T00:21:19.770Z,1.77
2023-05-17T00:24:21.513Z,1.57
2023-05-17T00:27:23.301Z,2.17
2023-05-17T00:30:25.036Z,1.67
2023-05-17T00:33:26.854Z,1.73
2023-05-17T00:36:28.625Z,1.87
2023-05-17T00:39:30.395Z,2.10
2023-05-17T00:42:32.928Z,1.67
2023-05-17T00:45:34.682Z,2.27
2023-05-17T00:48:37.742Z,2.03
2023-05-17T00:51:40.906Z,2.77
2023-05-17T00:54:42.761Z,2.10
2023-05-17T00:57:44.532Z,1.93
2023-05-17T01:00:47.093Z,2.20
2023-05-17T01:03:49.785Z,2.30
2023-05-17T01:06:52.054Z,2.03
2023-05-17T01:09:53.872Z,2.43
2023-05-17T01:13:03.074Z,2.07
2023-05-17T01:16:17.381Z,1.70
2023-05-17T01:19:42.621Z,2.00
2023-05-17T01:23:08.154Z,2.37
2023-05-17T01:26:31.838Z,2.03
2023-05-17T01:29:36.990Z,2.20
2023-05-17T01:32:41.799Z,2.47
2023-05-17T01:35:43.555Z,2.03
2023-05-17T01:38:45.280Z,1.87
2023-05-17T01:42:07.264Z,2.90
2023-05-17T01:45:12.791Z,2.50
2023-05-17T01:48:39.822Z,2.47
2023-05-17T01:52:16.921Z,2.57
2023-05-17T01:55:42.875Z,2.23
2023-05-17T01:58:47.407Z,2.17
2023-05-17T02:01:51.157Z,2.37
2023-05-17T02:04:52.903Z,2.20
2023-05-17T02:07:54.639Z,2.83
2023-05-17T02:10:56.511Z,2.67
2023-05-17T02:13:58.891Z,2.23
2023-05-17T02:17:01.488Z,2.60
2023-05-17T02:20:03.358Z,3.10
2023-05-17T02:23:05.296Z,2.47
2023-05-17T02:26:07.145Z,2.30
2023-05-17T02:29:11.173Z,2.27
2023-05-17T02:32:13.054Z,2.60
2023-05-17T02:35:15.069Z,1.90
2023-05-17T02:38:16.796Z,2.57
2023-05-17T02:41:18.535Z,2.77
2023-05-17T02:44:20.275Z,2.40
2023-05-17T02:47:22.335Z,2.40
2023-05-17T02:50:24.217Z,2.80
2023-05-17T02:53:25.952Z,2.13
2023-05-17T02:56:27.906Z,2.33
2023-05-17T02:59:29.663Z,2.73
2023-05-17T03:02:31.749Z,3.40
2023-05-17T03:05:34.072Z,2.73
2023-05-17T03:08:35.790Z,2.70
2023-05-17T03:11:38.187Z,3.23
2023-05-17T03:14:45.011Z,2.50
2023-05-17T03:17:46.912Z,2.40
2023-05-17T03:20:51.262Z,2.90
2023-05-17T03:23:53.112Z,2.83
2023-05-17T03:26:54.974Z,2.93
2023-05-17T03:29:57.299Z,2.87
2023-05-17T03:33:02.370Z,5.87
2023-05-17T03:36:04.741Z,12.90
2023-05-17T03:39:08.845Z,8.37
2023-05-17T03:42:12.503Z,9.07
2023-05-17T03:45:16.434Z,12.40
2023-05-17T03:48:18.309Z,5.17
2023-05-17T03:51:20.189Z,3.73
2023-05-17T03:54:22.046Z,3.43
2023-05-17T03:57:24.492Z,3.27
2023-05-17T04:00:26.305Z,4.70
2023-05-17T04:03:33.513Z,3.40
2023-05-17T04:06:35.745Z,3.27
2023-05-17T04:09:38.706Z,4.20
2023-05-17T04:12:40.498Z,2.90
2023-05-17T04:15:42.261Z,3.00
2023-05-17T04:18:45.433Z,3.13
2023-05-17T04:21:47.733Z,3.10
2023-05-17T04:24:49.764Z,3.20
2023-05-17T04:27:52.016Z,3.50
2023-05-17T04:30:55.581Z,2.67
2023-05-17T04:33:57.467Z,3.63
2023-05-17T04:36:59.611Z,4.00
2023-05-17T04:40:02.960Z,3.07
2023-05-17T04:43:08.941Z,2.90
2023-05-17T04:46:11.949Z,2.90
2023-05-17T04:49:14.240Z,2.60
2023-05-17T04:52:17.240Z,2.77
2023-05-17T04:55:20.963Z,3.23
2023-05-17T04:58:24.235Z,2.57
2023-05-17T05:01:35.121Z,2.80
2023-05-17T05:04:37.669Z,2.73
2023-05-17T05:07:40.119Z,3.13
2023-05-17T05:10:43.305Z,3.63
2023-05-17T05:13:46.260Z,2.60
2023-05-17T05:16:48.397Z,3.03
2023-05-17T05:19:52.252Z,2.83
2023-05-17T05:22:54.579Z,3.27
2023-05-17T05:25:56.659Z,2.80
2023-05-17T05:28:58.489Z,2.40
2023-05-17T05:32:00.381Z,3.60
2023-05-17T05:35:02.263Z,3.20
2023-05-17T05:38:05.205Z,3.00
2023-05-17T05:41:07.866Z,3.27
2023-05-17T05:44:11.576Z,2.87
2023-05-17T05:47:13.833Z,2.10
2023-05-17T05:50:15.621Z,2.83
2023-05-17T05:53:19.992Z,2.77
2023-05-17T05:56:29.934Z,3.50
2023-05-17T05:59:32.749Z,2.53
2023-05-17T06:02:34.971Z,3.17
2023-05-17T06:05:36.934Z,2.50
2023-05-17T06:08:38.791Z,2.30
2023-05-17T06:11:40.518Z,1.97
2023-05-17T06:14:42.251Z,1.87
2023-05-17T06:17:44.084Z,1.80
2023-05-17T06:20:46.451Z,1.90
2023-05-17T06:23:48.825Z,2.43
2023-05-17T06:26:50.555Z,2.17
2023-05-17T06:29:52.534Z,2.17
2023-05-17T06:32:54.335Z,2.00
2023-05-17T06:35:58.156Z,1.60
2023-05-17T06:39:00.428Z,1.53
2023-05-17T06:42:02.188Z,2.23
2023-05-17T06:45:11.146Z,2.30
2023-05-17T06:48:14.046Z,1.43
2023-05-17T06:51:15.856Z,1.83
2023-05-17T06:54:19.576Z,1.40
2023-05-17T06:57:21.325Z,1.50
2023-05-17T07:00:25.011Z,1.63
2023-05-17T07:03:27.421Z,1.50
2023-05-17T07:06:29.183Z,1.00
2023-05-17T07:09:30.952Z,1.60
2023-05-17T07:12:33.584Z,1.07
2023-05-17T07:15:35.421Z,1.70
2023-05-17T07:18:37.410Z,1.43
2023-05-17T07:21:39.381Z,1.47
2023-05-17T07:24:41.161Z,0.70
2023-05-17T07:27:42.946Z,1.70
2023-05-17T07:30:44.692Z,1.17
2023-05-17T07:33:46.432Z,1.30
2023-05-17T07:36:48.203Z,1.60
2023-05-17T07:39:49.946Z,1.13
2023-05-17T07:42:52.221Z,1.10
2023-05-17T07:45:54.005Z,1.47
2023-05-17T07:48:58.258Z,1.73
2023-05-17T07:52:02.180Z,1.37
2023-05-17T07:55:05.806Z,1.10
2023-05-17T07:58:10.359Z,1.23
2023-05-17T08:01:12.083Z,1.30
2023-05-17T08:04:18.959Z,1.17
2023-05-17T08:07:20.793Z,1.20
2023-05-17T08:10:22.591Z,1.17
2023-05-17T08:13:24.306Z,1.43
2023-05-17T08:16:26.462Z,1.33
2023-05-17T08:19:28.441Z,1.23
2023-05-17T08:22:30.538Z,1.10
2023-05-17T08:25:32.415Z,1.00
2023-05-17T08:28:34.714Z,1.00
2023-05-17T08:31:36.432Z,1.53
2023-05-17T08:34:38.976Z,1.67
2023-05-17T08:37:40.745Z,1.20
2023-05-17T08:40:42.492Z,1.57
2023-05-17T08:43:44.735Z,0.97
2023-05-17T08:46:53.566Z,1.00
2023-05-17T08:50:04.452Z,1.17
2023-05-17T08:53:07.317Z,1.23
2023-05-17T08:56:11.315Z,1.20
2023-05-17T08:59:13.552Z,1.23
2023-05-17T09:02:16.329Z,1.50
2023-05-17T09:05:18.426Z,0.97
2023-05-17T09:08:22.318Z,1.00
2023-05-17T09:11:34.712Z,1.70
2023-05-17T09:14:36.874Z,1.73
2023-05-17T09:17:41.256Z,1.50
2023-05-17T09:20:49.700Z,1.10
2023-05-17T09:24:02.318Z,1.17
2023-05-17T09:27:14.274Z,1.00
2023-05-17T09:30:16.084Z,1.20
2023-05-17T09:33:21.766Z,0.70
2023-05-17T09:36:23.962Z,1.30
2023-05-17T09:39:25.961Z,1.20
2023-05-17T09:42:27.782Z,1.40
2023-05-17T09:45:32.463Z,0.80
2023-05-17T09:48:40.058Z,1.10
2023-05-17T09:51:43.536Z,0.77
2023-05-17T09:54:53.413Z,0.77
2023-05-17T09:58:03.782Z,0.97
2023-05-17T10:01:07.321Z,1.00
2023-05-17T10:04:13.260Z,1.10
2023-05-17T10:07:19.647Z,1.17
2023-05-17T10:10:21.423Z,1.33
2023-05-17T10:13:25.849Z,0.93
2023-05-17T10:16:29.492Z,1.17
2023-05-17T10:19:31.833Z,0.90
2023-05-17T10:22:33.919Z,0.97
2023-05-17T10:25:36.596Z,1.00
2023-05-17T10:28:39.718Z,1.43
2023-05-17T10:31:43.464Z,1.07
2023-05-17T10:34:49.473Z,1.10
2023-05-17T10:37:56.487Z,0.93
2023-05-17T10:41:00.446Z,1.00
2023-05-17T10:44:05.376Z,0.83
2023-05-17T10:47:08.756Z,1.53
2023-05-17T10:50:13.174Z,1.17
2023-05-17T10:53:14.930Z,1.00
2023-05-17T10:56:16.700Z,1.70
2023-05-17T10:59:22.901Z,0.65
2023-05-17T11:02:27.815Z,0.65
2023-05-17T11:05:29.818Z,0.80
2023-05-17T11:08:32.350Z,1.20
2023-05-17T11:11:34.427Z,1.20
2023-05-17T11:14:56.536Z,1.15
2023-05-17T11:17:59.105Z,1.17
2023-05-17T11:21:09.343Z,0.90
2023-05-17T11:24:16.360Z,1.10
2023-05-17T11:27:19.836Z,1.58
2023-05-17T11:30:30.790Z,1.02
2023-05-17T11:33:44.481Z,1.00
2023-05-17T11:36:56.498Z,1.03
2023-05-17T11:40:08.311Z,0.60
2023-05-17T11:43:15.902Z,0.70
2023-05-17T11:46:22.370Z,0.97
2023-05-17T11:49:35.070Z,1.00
2023-05-17T11:52:40.549Z,0.90
2023-05-17T11:55:53.179Z,0.77
2023-05-17T11:58:55.890Z,1.13
2023-05-17T12:01:57.613Z,1.03
2023-05-17T12:04:59.786Z,1.30
2023-05-17T12:08:02.035Z,1.27
2023-05-17T12:11:05.154Z,1.50
2023-05-17T12:14:07.643Z,1.27
2023-05-17T12:17:13.709Z,1.20
2023-05-17T12:20:16.279Z,0.87
2023-05-17T12:23:26.418Z,1.60
2023-05-17T12:26:28.143Z,1.17
2023-05-17T12:29:30.263Z,1.07
2023-05-17T12:32:32.118Z,1.20
2023-05-17T12:35:34.252Z,1.13
2023-05-17T12:38:38.116Z,1.00
2023-05-17T12:41:40.776Z,1.57
2023-05-17T12:44:42.576Z,0.70
2023-05-17T12:47:44.403Z,1.40
2023-05-17T12:50:47.205Z,1.20
2023-05-17T12:53:51.419Z,1.47
2023-05-17T12:56:53.529Z,1.20
2023-05-17T12:59:55.257Z,1.40
2023-05-17T13:02:57.111Z,1.40
2023-05-17T13:06:07.777Z,1.43
2023-05-17T13:09:10.009Z,1.30
2023-05-17T13:12:11.749Z,1.33
2023-05-17T13:15:14.960Z,1.47
2023-05-17T13:18:18.017Z,1.27
2023-05-17T13:21:20.678Z,1.27
2023-05-17T13:24:22.564Z,1.50
2023-05-17T13:27:24.409Z,1.40
2023-05-17T13:30:26.294Z,1.27
2023-05-17T13:33:28.600Z,1.40
2023-05-17T13:36:31.037Z,1.47
2023-05-17T13:39:32.834Z,1.77
2023-05-17T13:42:34.639Z,2.37
2023-05-17T13:45:36.850Z,1.27
2023-05-17T13:48:41.977Z,1.80
2023-05-17T13:51:45.023Z,1.57
2023-05-17T13:54:46.916Z,1.63
2023-05-17T13:57:48.670Z,1.07
2023-05-17T14:00:50.390Z,1.57
2023-05-17T14:03:52.332Z,1.80
2023-05-17T14:06:55.217Z,1.40
2023-05-17T14:09:57.121Z,1.27
2023-05-17T14:12:58.870Z,1.57
2023-05-17T14:16:00.775Z,1.87
2023-05-17T14:19:04.794Z,2.07
2023-05-17T14:22:09.465Z,1.73
2023-05-17T14:25:11.684Z,1.13
2023-05-17T14:28:13.579Z,1.40
2023-05-17T14:31:15.322Z,1.67
2023-05-17T14:34:17.215Z,1.53
2023-05-17T14:37:21.130Z,1.20
2023-05-17T14:40:22.852Z,1.77
2023-05-17T14:43:24.795Z,1.43
2023-05-17T14:46:26.492Z,1.20
2023-05-17T14:49:28.188Z,1.87
2023-05-17T14:52:30.511Z,1.40
2023-05-17T14:55:32.385Z,1.63
2023-05-17T14:58:34.345Z,1.57
2023-05-17T15:01:36.139Z,1.60
2023-05-17T15:04:38.324Z,1.27
2023-05-17T15:07:40.455Z,2.03
2023-05-17T15:10:42.264Z,1.73
2023-05-17T15:13:44.058Z,1.70
2023-05-17T15:16:45.838Z,1.57
2023-05-17T15:19:47.807Z,1.43
2023-05-17T15:22:49.831Z,1.13
2023-05-17T15:25:51.550Z,1.60
2023-05-17T15:28:53.342Z,1.90
2023-05-17T15:31:55.109Z,1.83
2023-05-17T15:34:59.001Z,1.73
2023-05-17T15:38:05.898Z,1.30
2023-05-17T15:41:11.456Z,1.50
2023-05-17T15:44:13.283Z,1.10
2023-05-17T15:47:15.036Z,1.50
2023-05-17T15:50:17.018Z,1.70
2023-05-17T15:53:18.732Z,1.60
2023-05-17T15:56:20.971Z,2.10
2023-05-17T15:59:23.822Z,1.50
2023-05-17T16:02:25.985Z,4.07
2023-05-17T16:05:27.973Z,2.47
2023-05-17T16:08:29.989Z,2.57
2023-05-17T16:11:32.267Z,1.27
2023-05-17T16:14:34.139Z,2.03
2023-05-17T16:17:35.908Z,1.83
2023-05-17T16:20:37.703Z,1.37
2023-05-17T16:23:41.474Z,1.50
2023-05-17T16:26:44.398Z,1.40
2023-05-17T16:29:46.253Z,1.67
2023-05-17T16:32:48.191Z,1.40
2023-05-17T16:35:50.243Z,1.70
2023-05-17T16:38:52.523Z,1.20
2023-05-17T16:41:54.980Z,1.20
2023-05-17T16:44:56.922Z,1.73
2023-05-17T16:47:58.770Z,1.53
2023-05-17T16:51:00.617Z,1.50
2023-05-17T16:54:03.209Z,1.40
2023-05-17T16:57:07.943Z,1.40
2023-05-17T17:00:12.029Z,1.60
2023-05-17T17:03:13.964Z,1.40
2023-05-17T17:06:15.811Z,1.73
2023-05-17T17:09:18.572Z,1.60
2023-05-17T17:12:24.265Z,1.50
2023-05-17T17:15:27.278Z,2.10
2023-05-17T17:18:29.346Z,1.47
2023-05-17T17:21:36.277Z,1.27
2023-05-17T17:24:38.508Z,1.60
2023-05-17T17:27:42.034Z,1.90
2023-05-17T17:30:43.868Z,1.20
2023-05-17T17:33:45.817Z,1.10
2023-05-17T17:36:47.578Z,1.23
2023-05-17T17:39:49.297Z,1.03
2023-05-17T17:42:51.209Z,1.23
2023-05-17T17:45:53.010Z,1.20
2023-05-17T17:48:56.676Z,1.27
2023-05-17T17:51:58.648Z,1.47
2023-05-17T17:55:00.347Z,1.03
2023-05-17T17:58:02.149Z,1.10
2023-05-17T18:01:04.136Z,1.17
2023-05-17T18:04:06.679Z,1.17
2023-05-17T18:07:08.808Z,0.90
2023-05-17T18:10:11.157Z,1.20
2023-05-17T18:13:12.907Z,1.27
2023-05-17T18:16:14.638Z,1.20
2023-05-17T18:19:16.463Z,1.30
2023-05-17T18:22:18.901Z,1.20
2023-05-17T18:25:21.303Z,1.20
2023-05-17T18:28:33.903Z,1.10
2023-05-17T18:31:43.480Z,1.17
2023-05-17T18:34:45.367Z,1.37
2023-05-17T18:37:47.169Z,1.10
2023-05-17T18:40:49.664Z,1.00
2023-05-17T18:43:51.362Z,1.00
2023-05-17T18:46:54.021Z,1.03
2023-05-17T18:49:56.056Z,1.03
2023-05-17T18:52:59.758Z,1.23
2023-05-17T18:56:02.477Z,1.50
2023-05-17T18:59:05.076Z,1.10
2023-05-17T19:02:08.105Z,1.17
2023-05-17T19:05:10.864Z,1.20
2023-05-17T19:08:12.593Z,1.60
2023-05-17T19:11:14.533Z,1.33
2023-05-17T19:14:16.314Z,1.37
2023-05-17T19:17:18.062Z,1.30
2023-05-17T19:20:19.864Z,1.47
2023-05-17T19:23:21.808Z,1.57
2023-05-17T19:26:23.501Z,1.27
2023-05-17T19:29:27.141Z,1.40
2023-05-17T19:32:31.829Z,1.80
2023-05-17T19:35:33.650Z,1.33
2023-05-17T19:38:35.574Z,1.40
2023-05-17T19:41:37.295Z,1.17
2023-05-17T19:44:39.443Z,1.07
2023-05-17T19:47:44.205Z,1.27
2023-05-17T19:50:46.363Z,1.10
2023-05-17T19:53:53.279Z,1.30
2023-05-17T19:56:56.406Z,1.07
2023-05-17T19:59:58.103Z,1.50
2023-05-17T20:02:59.875Z,1.60
2023-05-17T20:06:01.713Z,1.37
2023-05-17T20:09:04.227Z,1.23
2023-05-17T20:12:07.118Z,1.37
2023-05-17T20:15:09.575Z,1.50
2023-05-17T20:18:12.802Z,1.43
2023-05-17T20:21:18.600Z,1.20
2023-05-17T20:24:23.228Z,1.27
2023-05-17T20:27:26.215Z,1.53
2023-05-17T20:30:28.376Z,1.90
2023-05-17T20:33:30.374Z,2.13
2023-05-17T20:36:32.564Z,1.47
2023-05-17T20:39:34.310Z,1.57
2023-05-17T20:42:38.009Z,1.73
2023-05-17T20:45:40.058Z,1.40
2023-05-17T20:48:43.157Z,1.60
2023-05-17T20:51:45.158Z,1.40
2023-05-17T20:54:46.896Z,1.50
2023-05-17T20:57:48.636Z,1.57
2023-05-17T21:00:50.348Z,1.50
2023-05-17T21:03:52.381Z,1.73
2023-05-17T21:06:57.982Z,2.53
2023-05-17T21:09:59.727Z,1.47
2023-05-17T21:13:01.441Z,1.07
2023-05-17T21:16:03.279Z,1.63
2023-05-17T21:19:05.085Z,1.50
2023-05-17T21:22:06.807Z,1.27
2023-05-17T21:25:08.991Z,1.37
2023-05-17T21:28:10.828Z,1.13
2023-05-17T21:31:12.654Z,1.40
2023-05-17T21:34:14.405Z,1.60
2023-05-17T21:37:16.117Z,1.53
2023-05-17T21:40:18.088Z,1.57
2023-05-17T21:43:19.946Z,1.17
2023-05-17T21:46:21.737Z,1.40
2023-05-17T21:49:23.720Z,1.00
2023-05-17T21:52:25.490Z,1.47
2023-05-17T21:55:32.361Z,1.23
2023-05-17T21:58:47.912Z,1.20
2023-05-17T22:01:49.776Z,1.30
2023-05-17T22:04:51.565Z,1.20
2023-05-17T22:07:53.522Z,1.40
2023-05-17T22:10:55.595Z,1.67
2023-05-17T22:13:58.063Z,1.50
2023-05-17T22:17:00.464Z,1.40
2023-05-17T22:20:05.942Z,1.30
2023-05-17T22:23:07.934Z,1.40
2023-05-17T22:26:09.699Z,1.67
2023-05-17T22:29:11.724Z,1.10
2023-05-17T22:32:13.557Z,1.27
2023-05-17T22:35:15.324Z,1.67
2023-05-17T22:38:17.077Z,1.40
2023-05-17T22:41:18.803Z,1.43
2023-05-17T22:44:21.947Z,1.93
2023-05-17T22:47:26.529Z,1.60
2023-05-17T22:50:30.502Z,2.20
2023-05-17T22:53:32.313Z,4.87
2023-05-17T22:56:34.014Z,1.90
2023-05-17T22:59:35.739Z,1.50
2023-05-17T23:02:37.510Z,1.43
2023-05-17T23:05:41.329Z,1.50
2023-05-17T23:08:43.122Z,1.40
2023-05-17T23:11:44.890Z,1.20
2023-05-17T23:14:47.226Z,1.67
2023-05-17T23:17:49.137Z,1.53
2023-05-17T23:20:50.853Z,1.13
2023-05-17T23:23:53.600Z,1.00
2023-05-17T23:26:58.693Z,1.07
2023-05-17T23:30:01.134Z,1.20
2023-05-17T23:33:03.045Z,1.43
2023-05-17T23:36:05.128Z,1.67
2023-05-17T23:39:07.030Z,1.40
2023-05-17T23:42:13.020Z,1.37
2023-05-17T23:45:14.842Z,1.37
2023-05-17T23:48:20.608Z,1.33
2023-05-17T23:51:22.364Z,1.17
2023-05-17T23:54:24.245Z,1.63
2023-05-17T23:57:26.077Z,0.93
